sensor_id;sensor_type;location;lat;lon;timestamp;pressure;altitude;pressure_sealevel;temperature;humidity
39363;BME280;25088;43.238;23.110;2023-07-20T00:01:28;96010.16;;;22.38;89.51
39363;BME280;25088;43.238;23.110;2023-07-20T00:03:53;95993.94;;;22.40;89.94
39363;BME280;25088;43.238;23.110;2023-07-20T00:06:22;96009.59;;;22.57;87.44
39363;BME280;25088;43.238;23.110;2023-07-20T00:08:49;95985.94;;;22.39;87.24
39363;BME280;25088;43.238;23.110;2023-07-20T00:11:14;96006.81;;;22.45;87.04
39363;BME280;25088;43.238;23.110;2023-07-20T00:13:40;96016.75;;;22.46;83.07
39363;BME280;25088;43.238;23.110;2023-07-20T00:16:06;96000.22;;;22.50;81.72
39363;BME280;25088;43.238;23.110;2023-07-20T00:18:31;96003.34;;;22.48;82.15
39363;BME280;25088;43.238;23.110;2023-07-20T00:20:57;96014.69;;;22.43;82.70
39363;BME280;25088;43.238;23.110;2023-07-20T00:23:25;96008.25;;;22.18;87.07
39363;BME280;25088;43.238;23.110;2023-07-20T00:25:50;96011.41;;;22.08;83.60
39363;BME280;25088;43.238;23.110;2023-07-20T00:28:16;95981.78;;;21.79;83.14
39363;BME280;25088;43.238;23.110;2023-07-20T00:30:41;96016.50;;;22.06;81.58
39363;BME280;25088;43.238;23.110;2023-07-20T00:33:10;96019.25;;;22.27;84.28
39363;BME280;25088;43.238;23.110;2023-07-20T00:35:37;96019.97;;;22.24;84.82
39363;BME280;25088;43.238;23.110;2023-07-20T00:38:03;96006.78;;;22.00;85.46
39363;BME280;25088;43.238;23.110;2023-07-20T00:40:29;95998.78;;;21.98;85.23
39363;BME280;25088;43.238;23.110;2023-07-20T00:43:00;96001.34;;;21.82;85.83
39363;BME280;25088;43.238;23.110;2023-07-20T00:45:26;96012.56;;;21.74;86.84
39363;BME280;25088;43.238;23.110;2023-07-20T00:47:51;95996.22;;;21.72;86.83
39363;BME280;25088;43.238;23.110;2023-07-20T00:50:17;95994.38;;;21.76;85.73
39363;BME280;25088;43.238;23.110;2023-07-20T00:52:42;95983.44;;;21.38;87.10
39363;BME280;25088;43.238;23.110;2023-07-20T00:55:09;95977.47;;;21.48;86.84
39363;BME280;25088;43.238;23.110;2023-07-20T00:57:34;96000.22;;;21.62;86.22
39363;BME280;25088;43.238;23.110;2023-07-20T01:00:00;95998.66;;;21.53;85.17
39363;BME280;25088;43.238;23.110;2023-07-20T01:02:25;96011.41;;;21.75;85.55
39363;BME280;25088;43.238;23.110;2023-07-20T01:04:51;96007.63;;;21.79;82.74
39363;BME280;25088;43.238;23.110;2023-07-20T01:07:43;96009.09;;;21.77;83.34
39363;BME280;25088;43.238;23.110;2023-07-20T01:10:20;96010.50;;;21.83;81.69
39363;BME280;25088;43.238;23.110;2023-07-20T01:12:53;96013.38;;;21.74;82.58
39363;BME280;25088;43.238;23.110;2023-07-20T01:15:20;96024.09;;;21.63;83.45
39363;BME280;25088;43.238;23.110;2023-07-20T01:17:46;96011.63;;;21.70;83.58
39363;BME280;25088;43.238;23.110;2023-07-20T01:20:16;96019.66;;;21.62;84.29
39363;BME280;25088;43.238;23.110;2023-07-20T01:25:51;96025.03;;;21.67;82.75
39363;BME280;25088;43.238;23.110;2023-07-20T01:28:35;96021.97;;;21.60;84.29
39363;BME280;25088;43.238;23.110;2023-07-20T01:33:43;96015.00;;;21.54;81.63
39363;BME280;25088;43.238;23.110;2023-07-20T01:36:10;95990.81;;;21.55;82.66
39363;BME280;25088;43.238;23.110;2023-07-20T01:38:36;96002.34;;;21.45;83.60
39363;BME280;25088;43.238;23.110;2023-07-20T01:41:03;95994.72;;;21.33;83.03
39363;BME280;25088;43.238;23.110;2023-07-20T01:43:28;96006.28;;;21.64;82.63
39363;BME280;25088;43.238;23.110;2023-07-20T01:45:54;95951.66;;;21.48;80.52
39363;BME280;25088;43.238;23.110;2023-07-20T01:48:19;96011.06;;;21.76;80.73
39363;BME280;25088;43.238;23.110;2023-07-20T01:50:45;95993.38;;;21.81;80.50
39363;BME280;25088;43.238;23.110;2023-07-20T01:53:11;96002.59;;;21.73;79.39
39363;BME280;25088;43.238;23.110;2023-07-20T01:55:36;95994.25;;;21.73;77.78
39363;BME280;25088;43.238;23.110;2023-07-20T01:58:02;95985.72;;;21.78;78.51
39363;BME280;25088;43.238;23.110;2023-07-20T02:00:28;95987.38;;;21.91;77.13
39363;BME280;25088;43.238;23.110;2023-07-20T02:02:54;95968.59;;;21.88;77.41
39363;BME280;25088;43.238;23.110;2023-07-20T02:05:20;95975.69;;;21.98;77.11
39363;BME280;25088;43.238;23.110;2023-07-20T02:07:45;95989.06;;;22.04;76.00
39363;BME280;25088;43.238;23.110;2023-07-20T02:10:11;95992.78;;;22.08;75.03
39363;BME280;25088;43.238;23.110;2023-07-20T02:12:36;95978.97;;;22.00;74.85
39363;BME280;25088;43.238;23.110;2023-07-20T02:15:02;96004.63;;;22.17;74.74
39363;BME280;25088;43.238;23.110;2023-07-20T02:17:28;95995.53;;;22.29;73.22
39363;BME280;25088;43.238;23.110;2023-07-20T02:19:56;95998.22;;;22.38;73.15
39363;BME280;25088;43.238;23.110;2023-07-20T02:22:23;96017.03;;;22.65;73.88
39363;BME280;25088;43.238;23.110;2023-07-20T02:24:48;96022.16;;;22.88;71.98
39363;BME280;25088;43.238;23.110;2023-07-20T02:27:15;96024.69;;;22.81;74.19
39363;BME280;25088;43.238;23.110;2023-07-20T02:29:41;96017.25;;;22.48;73.38
39363;BME280;25088;43.238;23.110;2023-07-20T02:32:08;96030.50;;;22.18;77.19
39363;BME280;25088;43.238;23.110;2023-07-20T02:34:34;96027.81;;;22.22;76.60
39363;BME280;25088;43.238;23.110;2023-07-20T02:37:00;96031.56;;;22.05;76.37
39363;BME280;25088;43.238;23.110;2023-07-20T02:39:27;96032.91;;;21.65;79.55
39363;BME280;25088;43.238;23.110;2023-07-20T02:41:53;96028.41;;;21.52;79.78
39363;BME280;25088;43.238;23.110;2023-07-20T02:44:19;96037.22;;;21.54;81.53
39363;BME280;25088;43.238;23.110;2023-07-20T02:46:44;96031.28;;;21.64;81.19
39363;BME280;25088;43.238;23.110;2023-07-20T02:49:09;96025.38;;;21.66;81.15
39363;BME280;25088;43.238;23.110;2023-07-20T02:51:35;95993.13;;;21.53;78.32
39363;BME280;25088;43.238;23.110;2023-07-20T02:54:00;96003.34;;;21.40;79.40
39363;BME280;25088;43.238;23.110;2023-07-20T02:56:26;96025.81;;;21.68;78.86
39363;BME280;25088;43.238;23.110;2023-07-20T02:58:52;96024.00;;;21.72;76.94
39363;BME280;25088;43.238;23.110;2023-07-20T03:01:17;96025.50;;;21.70;77.33
39363;BME280;25088;43.238;23.110;2023-07-20T03:03:43;96033.22;;;21.85;77.05
39363;BME280;25088;43.238;23.110;2023-07-20T03:06:13;96024.81;;;21.93;74.65
39363;BME280;25088;43.238;23.110;2023-07-20T03:08:40;96028.88;;;21.96;75.79
39363;BME280;25088;43.238;23.110;2023-07-20T03:11:06;96032.72;;;22.04;75.49
39363;BME280;25088;43.238;23.110;2023-07-20T03:13:32;96034.50;;;22.08;75.90
39363;BME280;25088;43.238;23.110;2023-07-20T03:15:57;96028.63;;;22.22;75.59
39363;BME280;25088;43.238;23.110;2023-07-20T03:18:22;96038.41;;;22.07;77.48
39363;BME280;25088;43.238;23.110;2023-07-20T03:20:48;96044.63;;;21.50;82.51
39363;BME280;25088;43.238;23.110;2023-07-20T03:23:14;96035.28;;;21.25;83.76
39363;BME280;25088;43.238;23.110;2023-07-20T03:25:40;96001.84;;;21.13;82.90
39363;BME280;25088;43.238;23.110;2023-07-20T03:28:05;96039.88;;;21.21;83.14
39363;BME280;25088;43.238;23.110;2023-07-20T03:30:31;96026.78;;;21.30;81.20
39363;BME280;25088;43.238;23.110;2023-07-20T03:32:56;96019.63;;;21.50;79.45
39363;BME280;25088;43.238;23.110;2023-07-20T03:35:22;96025.31;;;21.54;77.50
39363;BME280;25088;43.238;23.110;2023-07-20T03:37:47;96019.22;;;21.39;80.32
39363;BME280;25088;43.238;23.110;2023-07-20T03:40:13;96021.91;;;21.48;81.48
39363;BME280;25088;43.238;23.110;2023-07-20T03:42:39;96019.41;;;21.55;80.40
39363;BME280;25088;43.238;23.110;2023-07-20T03:45:05;95961.69;;;21.19;81.31
39363;BME280;25088;43.238;23.110;2023-07-20T03:47:31;96021.03;;;21.56;80.39
39363;BME280;25088;43.238;23.110;2023-07-20T03:49:57;96031.69;;;21.54;80.14
39363;BME280;25088;43.238;23.110;2023-07-20T03:52:23;95994.81;;;21.45;80.79
39363;BME280;25088;43.238;23.110;2023-07-20T03:54:49;96010.22;;;21.63;80.61
39363;BME280;25088;43.238;23.110;2023-07-20T03:57:16;96016.19;;;21.86;78.49
39363;BME280;25088;43.238;23.110;2023-07-20T03:59:45;96021.22;;;21.93;76.70
39363;BME280;25088;43.238;23.110;2023-07-20T04:02:11;95993.22;;;21.98;77.61
39363;BME280;25088;43.238;23.110;2023-07-20T04:04:36;96003.28;;;22.24;77.42
39363;BME280;25088;43.238;23.110;2023-07-20T04:07:02;95999.00;;;22.26;77.22
39363;BME280;25088;43.238;23.110;2023-07-20T04:09:28;95996.72;;;22.40;74.25
39363;BME280;25088;43.238;23.110;2023-07-20T04:11:53;96002.63;;;22.51;74.78
39363;BME280;25088;43.238;23.110;2023-07-20T04:14:19;95983.16;;;22.51;75.63
39363;BME280;25088;43.238;23.110;2023-07-20T04:16:46;95987.19;;;22.41;77.03
39363;BME280;25088;43.238;23.110;2023-07-20T04:19:12;95985.59;;;22.40;77.81
39363;BME280;25088;43.238;23.110;2023-07-20T04:21:40;95992.09;;;22.57;77.98
39363;BME280;25088;43.238;23.110;2023-07-20T04:24:06;95993.72;;;22.70;78.00
39363;BME280;25088;43.238;23.110;2023-07-20T04:26:32;95994.13;;;22.93;76.32
39363;BME280;25088;43.238;23.110;2023-07-20T04:28:57;95992.72;;;23.11;75.32
39363;BME280;25088;43.238;23.110;2023-07-20T04:31:25;95988.75;;;23.25;74.67
39363;BME280;25088;43.238;23.110;2023-07-20T04:33:50;95993.09;;;23.50;74.02
39363;BME280;25088;43.238;23.110;2023-07-20T04:36:16;95983.88;;;23.34;72.07
39363;BME280;25088;43.238;23.110;2023-07-20T04:38:45;95996.13;;;23.57;70.55
39363;BME280;25088;43.238;23.110;2023-07-20T04:41:11;95998.56;;;23.59;70.01
39363;BME280;25088;43.238;23.110;2023-07-20T04:43:43;96002.84;;;23.56;72.82
39363;BME280;25088;43.238;23.110;2023-07-20T04:46:10;96000.19;;;23.72;71.73
39363;BME280;25088;43.238;23.110;2023-07-20T04:48:35;96000.06;;;23.68;71.37
39363;BME280;25088;43.238;23.110;2023-07-20T04:51:01;95990.66;;;23.73;71.85
39363;BME280;25088;43.238;23.110;2023-07-20T04:53:26;95992.09;;;24.11;69.74
39363;BME280;25088;43.238;23.110;2023-07-20T04:55:52;95997.59;;;24.07;68.97
39363;BME280;25088;43.238;23.110;2023-07-20T04:58:22;95994.69;;;24.32;64.91
39363;BME280;25088;43.238;23.110;2023-07-20T05:00:48;95997.78;;;24.42;66.71
39363;BME280;25088;43.238;23.110;2023-07-20T05:03:14;95980.69;;;24.44;68.18
39363;BME280;25088;43.238;23.110;2023-07-20T05:05:39;96004.88;;;24.56;69.41
39363;BME280;25088;43.238;23.110;2023-07-20T05:08:05;95997.53;;;24.47;71.34
39363;BME280;25088;43.238;23.110;2023-07-20T05:10:31;96000.31;;;24.63;71.25
39363;BME280;25088;43.238;23.110;2023-07-20T05:12:58;95999.56;;;24.66;71.17
39363;BME280;25088;43.238;23.110;2023-07-20T05:15:23;95981.75;;;24.55;72.02
39363;BME280;25088;43.238;23.110;2023-07-20T05:17:49;95998.88;;;24.69;72.57
39363;BME280;25088;43.238;23.110;2023-07-20T05:20:14;95992.38;;;24.81;71.84
39363;BME280;25088;43.238;23.110;2023-07-20T05:22:40;96010.88;;;25.17;71.42
39363;BME280;25088;43.238;23.110;2023-07-20T05:25:09;96001.34;;;25.38;70.80
39363;BME280;25088;43.238;23.110;2023-07-20T05:27:39;96000.59;;;25.57;68.39
39363;BME280;25088;43.238;23.110;2023-07-20T05:30:05;96012.97;;;25.75;66.78
39363;BME280;25088;43.238;23.110;2023-07-20T05:32:32;96010.69;;;25.81;65.45
39363;BME280;25088;43.238;23.110;2023-07-20T05:34:58;95994.75;;;25.81;67.86
39363;BME280;25088;43.238;23.110;2023-07-20T05:37:23;96005.28;;;26.07;67.23
39363;BME280;25088;43.238;23.110;2023-07-20T05:39:49;96003.94;;;26.20;66.71
39363;BME280;25088;43.238;23.110;2023-07-20T05:42:15;95980.69;;;26.39;64.76
39363;BME280;25088;43.238;23.110;2023-07-20T05:44:41;95988.28;;;26.58;64.84
39363;BME280;25088;43.238;23.110;2023-07-20T05:47:07;95995.00;;;26.76;64.00
39363;BME280;25088;43.238;23.110;2023-07-20T05:49:33;95994.06;;;26.92;64.01
39363;BME280;25088;43.238;23.110;2023-07-20T05:51:59;95988.91;;;27.17;63.29
39363;BME280;25088;43.238;23.110;2023-07-20T05:54:26;95973.13;;;27.31;63.63
39363;BME280;25088;43.238;23.110;2023-07-20T05:56:51;95992.19;;;27.75;62.48
39363;BME280;25088;43.238;23.110;2023-07-20T05:59:17;95988.13;;;28.03;61.83
39363;BME280;25088;43.238;23.110;2023-07-20T06:01:45;95982.59;;;28.44;59.95
39363;BME280;25088;43.238;23.110;2023-07-20T06:04:13;95976.06;;;28.70;59.39
39363;BME280;25088;43.238;23.110;2023-07-20T06:06:39;95966.78;;;28.69;58.36
39363;BME280;25088;43.238;23.110;2023-07-20T06:09:04;95977.50;;;28.97;58.90
39363;BME280;25088;43.238;23.110;2023-07-20T06:11:32;95988.91;;;29.19;57.48
39363;BME280;25088;43.238;23.110;2023-07-20T06:13:58;95986.63;;;29.31;57.80
39363;BME280;25088;43.238;23.110;2023-07-20T06:16:24;95990.69;;;29.41;56.54
39363;BME280;25088;43.238;23.110;2023-07-20T06:18:49;95989.84;;;29.33;55.93
39363;BME280;25088;43.238;23.110;2023-07-20T06:21:15;95992.03;;;29.54;58.93
39363;BME280;25088;43.238;23.110;2023-07-20T06:23:40;95964.16;;;29.39;56.26
39363;BME280;25088;43.238;23.110;2023-07-20T06:26:06;95996.91;;;29.68;57.86
39363;BME280;25088;43.238;23.110;2023-07-20T06:28:33;96000.25;;;29.88;60.02
39363;BME280;25088;43.238;23.110;2023-07-20T06:31:02;96006.72;;;29.96;57.33
39363;BME280;25088;43.238;23.110;2023-07-20T06:33:28;96008.00;;;30.09;56.47
39363;BME280;25088;43.238;23.110;2023-07-20T06:35:53;96003.63;;;30.22;55.91
39363;BME280;25088;43.238;23.110;2023-07-20T06:38:19;96011.75;;;30.42;55.12
39363;BME280;25088;43.238;23.110;2023-07-20T06:40:48;96020.59;;;30.36;53.76
39363;BME280;25088;43.238;23.110;2023-07-20T06:43:13;96015.38;;;30.38;57.08
39363;BME280;25088;43.238;23.110;2023-07-20T06:45:39;96021.41;;;30.41;59.11
39363;BME280;25088;43.238;23.110;2023-07-20T06:48:05;96033.50;;;30.52;57.45
39363;BME280;25088;43.238;23.110;2023-07-20T06:50:31;96037.16;;;30.49;56.36
39363;BME280;25088;43.238;23.110;2023-07-20T06:52:56;96043.13;;;30.36;58.62
39363;BME280;25088;43.238;23.110;2023-07-20T06:55:22;96044.31;;;30.32;60.45
39363;BME280;25088;43.238;23.110;2023-07-20T06:57:47;96056.41;;;30.36;62.03
39363;BME280;25088;43.238;23.110;2023-07-20T07:00:13;96061.59;;;30.30;64.35
39363;BME280;25088;43.238;23.110;2023-07-20T07:02:40;96064.38;;;30.20;62.14
39363;BME280;25088;43.238;23.110;2023-07-20T07:05:05;96070.75;;;30.13;63.62
39363;BME280;25088;43.238;23.110;2023-07-20T07:07:31;96086.47;;;30.18;65.00
39363;BME280;25088;43.238;23.110;2023-07-20T07:09:57;96109.19;;;29.84;61.36
39363;BME280;25088;43.238;23.110;2023-07-20T07:12:22;96124.56;;;30.01;60.87
39363;BME280;25088;43.238;23.110;2023-07-20T07:14:48;96143.75;;;29.88;62.01
39363;BME280;25088;43.238;23.110;2023-07-20T07:17:13;96160.56;;;29.77;62.30
39363;BME280;25088;43.238;23.110;2023-07-20T07:19:39;96143.97;;;29.61;57.87
39363;BME280;25088;43.238;23.110;2023-07-20T07:22:06;96138.13;;;29.40;58.02
39363;BME280;25088;43.238;23.110;2023-07-20T07:24:31;96141.66;;;29.30;60.69
39363;BME280;25088;43.238;23.110;2023-07-20T07:27:01;96148.94;;;29.34;58.62
39363;BME280;25088;43.238;23.110;2023-07-20T07:29:27;96156.91;;;29.73;57.34
39363;BME280;25088;43.238;23.110;2023-07-20T07:31:53;96136.19;;;29.96;55.18
39363;BME280;25088;43.238;23.110;2023-07-20T07:34:18;96140.16;;;29.40;59.16
39363;BME280;25088;43.238;23.110;2023-07-20T07:36:44;96144.69;;;29.10;61.03
39363;BME280;25088;43.238;23.110;2023-07-20T07:39:09;96136.53;;;29.39;59.79
39363;BME280;25088;43.238;23.110;2023-07-20T07:41:35;96102.38;;;29.41;60.07
39363;BME280;25088;43.238;23.110;2023-07-20T07:44:01;96088.94;;;29.68;57.02
39363;BME280;25088;43.238;23.110;2023-07-20T07:46:26;96134.00;;;29.71;56.55
39363;BME280;25088;43.238;23.110;2023-07-20T07:48:51;96154.56;;;29.34;53.09
39363;BME280;25088;43.238;23.110;2023-07-20T07:51:18;96168.53;;;29.65;51.98
39363;BME280;25088;43.238;23.110;2023-07-20T07:53:46;96177.81;;;30.20;50.29
39363;BME280;25088;43.238;23.110;2023-07-20T07:56:11;96176.31;;;29.85;48.57
39363;BME280;25088;43.238;23.110;2023-07-20T07:58:37;96175.97;;;29.91;49.68
39363;BME280;25088;43.238;23.110;2023-07-20T08:01:03;96169.16;;;29.95;48.13
39363;BME280;25088;43.238;23.110;2023-07-20T08:03:29;96185.66;;;29.97;49.59
39363;BME280;25088;43.238;23.110;2023-07-20T08:05:55;96154.53;;;30.30;48.38
39363;BME280;25088;43.238;23.110;2023-07-20T08:08:21;96168.78;;;30.59;47.50
39363;BME280;25088;43.238;23.110;2023-07-20T08:10:46;96187.88;;;30.91;47.63
39363;BME280;25088;43.238;23.110;2023-07-20T08:13:12;96167.75;;;30.88;47.47
39363;BME280;25088;43.238;23.110;2023-07-20T08:15:38;96184.88;;;30.58;46.81
39363;BME280;25088;43.238;23.110;2023-07-20T08:18:03;96174.09;;;30.71;46.13
39363;BME280;25088;43.238;23.110;2023-07-20T08:20:29;96167.81;;;31.13;45.67
39363;BME280;25088;43.238;23.110;2023-07-20T08:22:55;96158.94;;;31.15;46.31
39363;BME280;25088;43.238;23.110;2023-07-20T08:25:21;96170.88;;;30.73;46.33
39363;BME280;25088;43.238;23.110;2023-07-20T08:27:46;96139.38;;;30.56;45.31
39363;BME280;25088;43.238;23.110;2023-07-20T08:30:13;96110.38;;;30.52;46.49
39363;BME280;25088;43.238;23.110;2023-07-20T08:32:38;96129.84;;;30.75;46.74
39363;BME280;25088;43.238;23.110;2023-07-20T08:35:05;96118.81;;;30.45;47.10
39363;BME280;25088;43.238;23.110;2023-07-20T08:37:31;96107.28;;;30.75;45.90
39363;BME280;25088;43.238;23.110;2023-07-20T08:39:56;96103.69;;;30.85;44.88
39363;BME280;25088;43.238;23.110;2023-07-20T08:42:22;96090.44;;;31.07;45.96
39363;BME280;25088;43.238;23.110;2023-07-20T08:44:48;96080.00;;;31.19;45.94
39363;BME280;25088;43.238;23.110;2023-07-20T08:47:16;96075.19;;;31.26;45.24
39363;BME280;25088;43.238;23.110;2023-07-20T08:49:41;96074.78;;;31.31;45.61
39363;BME280;25088;43.238;23.110;2023-07-20T08:52:08;96043.72;;;30.99;45.25
39363;BME280;25088;43.238;23.110;2023-07-20T08:54:34;96069.50;;;31.23;44.78
39363;BME280;25088;43.238;23.110;2023-07-20T08:57:05;96067.50;;;31.16;44.96
39363;BME280;25088;43.238;23.110;2023-07-20T08:59:32;96071.19;;;31.38;45.85
39363;BME280;25088;43.238;23.110;2023-07-20T09:02:00;96077.22;;;31.51;44.12
39363;BME280;25088;43.238;23.110;2023-07-20T09:04:27;96071.97;;;31.42;44.51
39363;BME280;25088;43.238;23.110;2023-07-20T09:06:53;96056.69;;;31.43;44.64
39363;BME280;25088;43.238;23.110;2023-07-20T09:09:18;96061.09;;;31.26;45.21
39363;BME280;25088;43.238;23.110;2023-07-20T09:11:47;96051.84;;;31.40;44.13
39363;BME280;25088;43.238;23.110;2023-07-20T09:14:13;96044.59;;;31.39;45.75
39363;BME280;25088;43.238;23.110;2023-07-20T09:16:51;96044.97;;;31.27;45.27
39363;BME280;25088;43.238;23.110;2023-07-20T09:19:17;96059.91;;;31.34;45.77
39363;BME280;25088;43.238;23.110;2023-07-20T09:21:50;96019.94;;;30.97;45.33
39363;BME280;25088;43.238;23.110;2023-07-20T09:24:19;96049.38;;;31.21;45.27
39363;BME280;25088;43.238;23.110;2023-07-20T09:26:46;96038.09;;;31.10;45.04
39363;BME280;25088;43.238;23.110;2023-07-20T09:29:19;95998.22;;;31.01;44.52
39363;BME280;25088;43.238;23.110;2023-07-20T09:32:01;96004.25;;;31.10;47.38
39363;BME280;25088;43.238;23.110;2023-07-20T09:34:29;96013.91;;;31.02;45.28
39363;BME280;25088;43.238;23.110;2023-07-20T09:36:55;96021.19;;;30.99;44.40
39363;BME280;25088;43.238;23.110;2023-07-20T09:39:21;96012.72;;;30.96;45.14
39363;BME280;25088;43.238;23.110;2023-07-20T09:41:46;96008.28;;;30.95;47.47
39363;BME280;25088;43.238;23.110;2023-07-20T09:44:14;96013.47;;;30.71;49.58
39363;BME280;25088;43.238;23.110;2023-07-20T09:46:47;96012.63;;;30.67;49.31
39363;BME280;25088;43.238;23.110;2023-07-20T09:49:14;96000.84;;;30.26;52.55
39363;BME280;25088;43.238;23.110;2023-07-20T09:51:40;95991.22;;;30.30;53.22
39363;BME280;25088;43.238;23.110;2023-07-20T09:54:07;95988.00;;;30.32;52.89
39363;BME280;25088;43.238;23.110;2023-07-20T09:56:34;95985.16;;;30.32;54.19
39363;BME280;25088;43.238;23.110;2023-07-20T09:59:00;95979.03;;;30.12;54.99
39363;BME280;25088;43.238;23.110;2023-07-20T10:01:26;95964.94;;;30.01;53.03
39363;BME280;25088;43.238;23.110;2023-07-20T10:03:53;95973.13;;;30.38;51.43
39363;BME280;25088;43.238;23.110;2023-07-20T10:06:28;95973.16;;;30.53;49.91
39363;BME280;25088;43.238;23.110;2023-07-20T10:08:56;95959.81;;;30.32;49.66
39363;BME280;25088;43.238;23.110;2023-07-20T10:11:27;95965.09;;;30.41;49.58
39363;BME280;25088;43.238;23.110;2023-07-20T10:13:57;95962.34;;;30.73;47.99
39363;BME280;25088;43.238;23.110;2023-07-20T10:16:34;95957.94;;;31.07;48.61
39363;BME280;25088;43.238;23.110;2023-07-20T10:19:11;95951.09;;;31.26;47.70
39363;BME280;25088;43.238;23.110;2023-07-20T10:21:40;95955.88;;;31.61;47.42
39363;BME280;25088;43.238;23.110;2023-07-20T10:24:08;95941.31;;;31.84;47.40
39363;BME280;25088;43.238;23.110;2023-07-20T10:26:34;95942.88;;;32.00;48.18
39363;BME280;25088;43.238;23.110;2023-07-20T10:29:00;95938.81;;;32.04;46.22
39363;BME280;25088;43.238;23.110;2023-07-20T10:31:27;95943.44;;;32.54;45.02
39363;BME280;25088;43.238;23.110;2023-07-20T10:33:56;95942.38;;;32.85;45.26
39363;BME280;25088;43.238;23.110;2023-07-20T10:36:26;95926.00;;;33.14;44.54
39363;BME280;25088;43.238;23.110;2023-07-20T10:38:56;95934.97;;;33.51;44.04
39363;BME280;25088;43.238;23.110;2023-07-20T10:41:32;95946.22;;;33.95;43.80
39363;BME280;25088;43.238;23.110;2023-07-20T10:44:06;95940.59;;;33.92;43.28
39363;BME280;25088;43.238;23.110;2023-07-20T10:49:05;95944.91;;;34.07;41.95
39363;BME280;25088;43.238;23.110;2023-07-20T10:51:41;95942.75;;;34.15;42.34
39363;BME280;25088;43.238;23.110;2023-07-20T10:54:09;95939.53;;;34.43;42.88
39363;BME280;25088;43.238;23.110;2023-07-20T10:56:34;95933.38;;;34.79;41.40
39363;BME280;25088;43.238;23.110;2023-07-20T10:59:00;95931.53;;;34.96;39.65
39363;BME280;25088;43.238;23.110;2023-07-20T11:01:30;95917.22;;;35.27;39.52
39363;BME280;25088;43.238;23.110;2023-07-20T11:03:59;95945.69;;;35.46;39.15
39363;BME280;25088;43.238;23.110;2023-07-20T11:09:05;95948.34;;;34.53;34.35
39363;BME280;25088;43.238;23.110;2023-07-20T11:11:33;95951.09;;;34.87;33.17
39363;BME280;25088;43.238;23.110;2023-07-20T11:14:05;95966.31;;;34.08;41.39
39363;BME280;25088;43.238;23.110;2023-07-20T11:16:44;95954.97;;;34.12;42.97
39363;BME280;25088;43.238;23.110;2023-07-20T11:19:20;95957.94;;;34.62;43.37
39363;BME280;25088;43.238;23.110;2023-07-20T11:21:51;95956.69;;;34.90;43.28
39363;BME280;25088;43.238;23.110;2023-07-20T11:24:17;95945.91;;;35.32;43.40
39363;BME280;25088;43.238;23.110;2023-07-20T11:26:44;95951.97;;;35.58;42.06
39363;BME280;25088;43.238;23.110;2023-07-20T11:29:12;95945.19;;;35.52;41.86
39363;BME280;25088;43.238;23.110;2023-07-20T11:31:39;95948.13;;;35.21;42.38
39363;BME280;25088;43.238;23.110;2023-07-20T11:34:05;95955.53;;;34.88;41.75
39363;BME280;25088;43.238;23.110;2023-07-20T11:36:31;95936.22;;;34.79;40.97
39363;BME280;25088;43.238;23.110;2023-07-20T11:38:58;95930.81;;;34.31;42.80
39363;BME280;25088;43.238;23.110;2023-07-20T11:41:24;95944.94;;;34.65;42.32
39363;BME280;25088;43.238;23.110;2023-07-20T11:43:51;95924.50;;;34.77;41.94
39363;BME280;25088;43.238;23.110;2023-07-20T11:46:16;95943.69;;;34.93;41.80
39363;BME280;25088;43.238;23.110;2023-07-20T11:48:42;95939.25;;;34.92;42.51
39363;BME280;25088;43.238;23.110;2023-07-20T11:51:16;95938.50;;;34.61;43.17
39363;BME280;25088;43.238;23.110;2023-07-20T11:53:44;95945.22;;;34.13;43.87
39363;BME280;25088;43.238;23.110;2023-07-20T11:56:11;95940.50;;;34.33;43.93
39363;BME280;25088;43.238;23.110;2023-07-20T11:58:41;95947.44;;;34.59;43.63
39363;BME280;25088;43.238;23.110;2023-07-20T12:01:07;95951.50;;;35.12;42.54
39363;BME280;25088;43.238;23.110;2023-07-20T12:03:32;95948.28;;;35.81;41.78
39363;BME280;25088;43.238;23.110;2023-07-20T12:06:06;95949.41;;;36.46;40.41
39363;BME280;25088;43.238;23.110;2023-07-20T12:08:32;95947.25;;;36.70;39.37
39363;BME280;25088;43.238;23.110;2023-07-20T12:10:58;95954.88;;;36.73;39.14
39363;BME280;25088;43.238;23.110;2023-07-20T12:13:23;95961.91;;;37.21;38.40
39363;BME280;25088;43.238;23.110;2023-07-20T12:15:53;95950.22;;;36.47;39.22
39363;BME280;25088;43.238;23.110;2023-07-20T12:18:22;95959.13;;;37.02;38.55
39363;BME280;25088;43.238;23.110;2023-07-20T12:20:48;95962.44;;;37.49;37.56
39363;BME280;25088;43.238;23.110;2023-07-20T12:23:15;95957.28;;;37.60;37.72
39363;BME280;25088;43.238;23.110;2023-07-20T12:25:44;95962.88;;;37.31;37.55
39363;BME280;25088;43.238;23.110;2023-07-20T12:28:11;95955.38;;;37.86;36.91
39363;BME280;25088;43.238;23.110;2023-07-20T12:30:41;95950.97;;;37.82;36.06
39363;BME280;25088;43.238;23.110;2023-07-20T12:33:07;95954.56;;;37.69;36.66
39363;BME280;25088;43.238;23.110;2023-07-20T12:35:33;95956.22;;;37.99;35.58
39363;BME280;25088;43.238;23.110;2023-07-20T12:37:59;95954.75;;;38.08;35.59
39363;BME280;25088;43.238;23.110;2023-07-20T12:40:25;95917.22;;;37.96;35.28
39363;BME280;25088;43.238;23.110;2023-07-20T12:42:51;95953.16;;;38.07;35.88
39363;BME280;25088;43.238;23.110;2023-07-20T12:45:16;95949.75;;;38.12;36.16
39363;BME280;25088;43.238;23.110;2023-07-20T12:47:42;95955.91;;;38.10;36.03
39363;BME280;25088;43.238;23.110;2023-07-20T12:50:12;95960.03;;;38.22;35.48
39363;BME280;25088;43.238;23.110;2023-07-20T12:52:39;95956.09;;;38.32;34.90
39363;BME280;25088;43.238;23.110;2023-07-20T12:55:06;95955.22;;;38.35;35.90
39363;BME280;25088;43.238;23.110;2023-07-20T12:57:37;95930.06;;;37.88;35.53
39363;BME280;25088;43.238;23.110;2023-07-20T13:00:04;95922.47;;;37.98;35.37